createdAt,value
2023-04-11T00:02:13.973Z,101353.13
2023-04-11T00:04:41.340Z,101343.34
2023-04-11T00:07:09.290Z,101337.88
2023-04-11T00:09:36.332Z,101341.50
2023-04-11T00:12:03.799Z,101335.38
2023-04-11T00:14:34.424Z,101334.34
2023-04-11T00:17:01.466Z,101324.19
2023-04-11T00:19:28.592Z,101325.69
2023-04-11T00:21:58.632Z,101325.19
2023-04-11T00:24:26.477Z,101327.84
2023-04-11T00:26:53.877Z,101333.38
2023-04-11T00:29:20.985Z,101333.75
2023-04-11T00:31:48.680Z,101332.16
2023-04-11T00:34:17.266Z,101326.16
2023-04-11T00:36:44.534Z,101328.63
2023-04-11T00:39:13.243Z,101332.88
2023-04-11T00:41:40.519Z,101334.81
2023-04-11T00:44:08.530Z,101328.56
2023-04-11T00:46:35.968Z,101319.00
2023-04-11T00:49:03.197Z,101321.19
2023-04-11T00:51:30.505Z,101318.66
2023-04-11T00:53:57.695Z,101315.00
2023-04-11T00:56:24.869Z,101319.03
2023-04-11T00:58:51.920Z,101319.91
2023-04-11T01:01:19.987Z,101317.16
2023-04-11T01:03:47.333Z,101312.94
2023-04-11T01:06:14.978Z,101306.44
2023-04-11T01:08:42.849Z,101305.63
2023-04-11T01:11:10.659Z,101301.44
2023-04-11T01:13:41.896Z,101308.25
2023-04-11T01:16:10.176Z,101306.38
2023-04-11T01:18:37.459Z,101300.25
2023-04-11T01:21:05.001Z,101281.22
2023-04-11T01:23:34.267Z,101280.28
2023-04-11T01:26:01.410Z,101284.38
2023-04-11T01:28:28.691Z,101281.22
2023-04-11T01:30:55.919Z,101268.28
2023-04-11T01:33:23.398Z,101258.16
2023-04-11T01:35:50.534Z,101254.50
2023-04-11T01:38:17.756Z,101236.56
2023-04-11T01:40:45.323Z,101223.72
2023-04-11T01:43:12.584Z,101216.13
2023-04-11T01:45:40.000Z,101224.66
2023-04-11T01:48:08.417Z,101225.56
2023-04-11T01:50:35.908Z,101231.13
2023-04-11T01:53:04.974Z,101236.41
2023-04-11T01:55:32.076Z,101244.16
2023-04-11T01:57:59.155Z,101246.63
2023-04-11T02:00:26.269Z,101250.53
2023-04-11T02:02:53.450Z,101259.50
2023-04-11T02:05:20.744Z,101263.88
2023-04-11T02:07:47.806Z,101269.81
2023-04-11T02:10:18.349Z,101263.44
2023-04-11T02:12:45.427Z,101272.22
2023-04-11T02:15:13.271Z,101264.22
2023-04-11T02:17:45.543Z,101270.84
2023-04-11T02:20:13.641Z,101275.72
2023-04-11T02:22:41.410Z,101270.94
2023-04-11T02:25:08.616Z,101265.22
2023-04-11T02:27:35.748Z,101249.81
2023-04-11T02:30:06.108Z,101240.19
2023-04-11T02:32:37.753Z,101236.31
2023-04-11T02:35:05.219Z,101227.44
2023-04-11T02:37:32.358Z,101224.31
2023-04-11T02:39:59.380Z,101229.25
2023-04-11T02:42:26.461Z,101220.09
2023-04-11T02:44:54.502Z,101213.28
2023-04-11T02:47:23.254Z,101206.28
2023-04-11T02:49:50.540Z,101201.31
2023-04-11T02:52:23.475Z,101205.63
2023-04-11T02:54:50.513Z,101211.41
2023-04-11T02:57:17.648Z,101214.69
2023-04-11T02:59:44.849Z,101225.28
2023-04-11T03:02:12.858Z,101229.13
2023-04-11T03:04:40.219Z,101228.63
2023-04-11T03:07:13.431Z,101226.69
2023-04-11T03:09:40.568Z,101230.91
2023-04-11T03:12:07.957Z,101231.53
2023-04-11T03:14:39.532Z,101226.88
2023-04-11T03:17:06.634Z,101220.63
2023-04-11T03:19:34.115Z,101219.69
2023-04-11T03:22:04.583Z,101209.28
2023-04-11T03:24:32.339Z,101201.41
2023-04-11T03:26:59.520Z,101180.84
2023-04-11T03:29:27.116Z,101175.19
2023-04-11T03:32:03.227Z,101169.50
2023-04-11T03:34:33.941Z,101158.13
2023-04-11T03:37:02.517Z,101148.97
2023-04-11T03:39:30.104Z,101142.13
2023-04-11T03:41:59.313Z,101135.22
2023-04-11T03:44:27.258Z,101130.69
2023-04-11T03:46:54.900Z,101133.69
2023-04-11T03:49:22.065Z,101151.03
2023-04-11T03:51:54.462Z,101167.84
2023-04-11T03:54:21.911Z,101163.75
2023-04-11T03:56:49.026Z,101163.63
2023-04-11T03:59:21.377Z,101160.75
2023-04-11T04:01:54.343Z,101159.97
2023-04-11T04:04:21.567Z,101158.38
2023-04-11T04:06:57.067Z,101154.91
2023-04-11T04:09:31.656Z,101150.00
2023-04-11T04:11:58.900Z,101154.34
2023-04-11T04:14:36.569Z,101160.13
2023-04-11T04:17:03.670Z,101148.59
2023-04-11T04:19:30.754Z,101152.44
2023-04-11T04:21:58.227Z,101165.09
2023-04-11T04:24:39.404Z,101164.50
2023-04-11T04:27:19.077Z,101151.31
2023-04-11T04:29:49.690Z,101144.91
2023-04-11T04:32:30.808Z,101149.53
2023-04-11T04:35:02.782Z,101146.81
2023-04-11T04:37:39.444Z,101142.50
2023-04-11T04:40:14.133Z,101152.59
2023-04-11T04:42:58.782Z,101158.84
2023-04-11T04:45:37.404Z,101152.72
2023-04-11T04:48:05.374Z,101156.72
2023-04-11T04:50:32.602Z,101158.66
2023-04-11T04:52:59.715Z,101146.34
2023-04-11T04:55:28.956Z,101143.13
2023-04-11T04:57:56.284Z,101149.69
2023-04-11T05:00:23.511Z,101157.00
2023-04-11T05:02:55.572Z,101150.16
2023-04-11T05:05:25.890Z,101143.63
2023-04-11T05:07:53.722Z,101135.94
2023-04-11T05:10:21.101Z,101133.72
2023-04-11T05:12:48.892Z,101138.84
2023-04-11T05:15:16.186Z,101150.16
2023-04-11T05:17:43.339Z,101149.41
2023-04-11T05:20:11.963Z,101150.38
2023-04-11T05:22:39.413Z,101155.69
2023-04-11T05:25:08.989Z,101151.53
2023-04-11T05:27:38.120Z,101140.47
2023-04-11T05:30:06.377Z,101133.78
2023-04-11T05:32:37.496Z,101131.84
2023-04-11T05:35:05.966Z,101119.63
2023-04-11T05:37:46.246Z,101132.00
2023-04-11T05:40:13.380Z,101121.09
2023-04-11T05:42:40.488Z,101110.69
2023-04-11T05:45:07.886Z,101085.97
2023-04-11T05:47:34.993Z,101082.31
2023-04-11T05:50:02.177Z,101093.88
2023-04-11T05:52:29.256Z,101092.78
2023-04-11T05:54:56.321Z,101096.50
2023-04-11T05:57:23.626Z,101104.84
2023-04-11T05:59:52.938Z,101100.03
2023-04-11T06:02:20.189Z,101090.41
2023-04-11T06:04:47.395Z,101095.50
2023-04-11T06:07:14.580Z,101102.84
2023-04-11T06:09:42.583Z,101106.25
2023-04-11T06:12:09.812Z,101110.03
2023-04-11T06:14:39.527Z,101109.34
2023-04-11T06:17:07.446Z,101102.03
2023-04-11T06:19:34.509Z,101092.97
2023-04-11T06:22:01.921Z,101094.53
2023-04-11T06:24:39.753Z,101097.50
2023-04-11T06:27:10.081Z,101093.91
2023-04-11T06:29:37.662Z,101093.91
2023-04-11T06:32:04.948Z,101096.63
2023-04-11T06:34:32.241Z,101105.09
2023-04-11T06:36:59.415Z,101100.28
2023-04-11T06:39:26.558Z,101088.31
2023-04-11T06:41:53.640Z,101087.22
2023-04-11T06:44:25.855Z,101077.53
2023-04-11T06:46:53.188Z,101075.81
2023-04-11T06:49:20.746Z,101067.47
2023-04-11T06:51:50.098Z,101069.69
2023-04-11T06:54:18.157Z,101053.72
2023-04-11T06:56:45.756Z,101048.66
2023-04-11T06:59:13.309Z,101043.19
2023-04-11T07:01:40.399Z,101048.31
2023-04-11T07:04:08.103Z,101038.88
2023-04-11T07:06:36.405Z,101045.84
2023-04-11T07:09:04.044Z,101033.91
2023-04-11T07:11:31.286Z,101035.69
2023-04-11T07:14:01.837Z,101032.16
2023-04-11T07:16:29.005Z,101037.47
2023-04-11T07:18:56.281Z,101024.41
2023-04-11T07:21:23.453Z,101024.31
2023-04-11T07:23:50.505Z,101027.47
2023-04-11T07:26:17.886Z,101030.09
2023-04-11T07:28:45.227Z,101038.31
2023-04-11T07:31:12.708Z,101039.75
2023-04-11T07:33:43.021Z,101040.63
2023-04-11T07:36:11.003Z,101041.91
2023-04-11T07:38:38.408Z,101030.00
2023-04-11T07:41:05.655Z,101034.00
2023-04-11T07:43:33.324Z,101041.41
2023-04-11T07:46:00.752Z,101031.78
2023-04-11T07:48:28.393Z,101020.63
2023-04-11T07:50:55.537Z,101018.66
2023-04-11T07:53:22.635Z,101020.91
2023-04-11T07:55:49.825Z,101006.50
2023-04-11T07:58:16.933Z,101008.47
2023-04-11T08:00:44.021Z,100996.53
2023-04-11T08:03:11.755Z,100995.28
2023-04-11T08:05:39.169Z,100986.09
2023-04-11T08:08:06.639Z,100995.81
2023-04-11T08:10:33.929Z,100989.00
2023-04-11T08:13:01.141Z,100982.34
2023-04-11T08:15:28.206Z,100971.22
2023-04-11T08:17:56.240Z,100975.19
2023-04-11T08:20:24.071Z,100977.78
2023-04-11T08:22:51.195Z,100985.19
2023-04-11T08:25:22.703Z,100978.19
2023-04-11T08:27:50.877Z,100961.06
2023-04-11T08:30:18.064Z,100961.56
2023-04-11T08:32:45.247Z,100960.88
2023-04-11T08:35:12.426Z,100955.78
2023-04-11T08:37:39.570Z,100956.53
2023-04-11T08:40:07.040Z,100948.50
2023-04-11T08:42:34.402Z,100956.41
2023-04-11T08:45:03.126Z,100963.19
2023-04-11T08:47:30.960Z,100948.00
2023-04-11T08:49:58.063Z,100939.66
2023-04-11T08:52:25.401Z,100941.50
2023-04-11T08:54:56.249Z,100938.44
2023-04-11T08:57:26.158Z,100930.81
2023-04-11T08:59:57.367Z,100922.34
2023-04-11T09:02:24.570Z,100923.25
2023-04-11T09:04:52.064Z,100918.25
2023-04-11T09:07:19.392Z,100916.13
2023-04-11T09:09:46.550Z,100918.50
2023-04-11T09:12:13.777Z,100905.50
2023-04-11T09:14:41.596Z,100893.94
2023-04-11T09:17:13.537Z,100888.53
2023-04-11T09:19:45.126Z,100898.72
2023-04-11T09:22:15.658Z,100889.56
2023-04-11T09:24:43.018Z,100886.81
2023-04-11T09:27:15.642Z,100880.81
2023-04-11T09:29:45.254Z,100864.25
2023-04-11T09:32:27.460Z,100863.56
2023-04-11T09:35:18.717Z,100865.44
2023-04-11T09:37:50.312Z,100859.97
2023-04-11T09:40:18.390Z,100845.97
2023-04-11T09:42:46.116Z,100856.56
2023-04-11T09:45:17.549Z,100861.97
2023-04-11T09:47:45.722Z,100864.34
2023-04-11T09:50:12.917Z,100869.34
2023-04-11T09:52:41.798Z,100855.53
2023-04-11T09:55:11.695Z,100840.81
2023-04-11T09:57:40.681Z,100842.91
2023-04-11T10:00:17.171Z,100828.66
2023-04-11T10:02:45.174Z,100827.06
2023-04-11T10:05:13.396Z,100821.91
2023-04-11T10:07:55.711Z,100822.16
2023-04-11T10:10:24.029Z,100829.41
2023-04-11T10:12:51.523Z,100824.72
2023-04-11T10:15:19.253Z,100833.66
2023-04-11T10:18:05.401Z,100837.16
2023-04-11T10:20:39.217Z,100819.78
2023-04-11T10:23:07.568Z,100804.41
2023-04-11T10:25:48.400Z,100814.88
2023-04-11T10:28:29.533Z,100820.59
2023-04-11T10:31:00.514Z,100809.03
2023-04-11T10:33:28.158Z,100805.78
2023-04-11T10:35:59.301Z,100805.56
2023-04-11T10:38:43.231Z,100809.06
2023-04-11T10:41:17.887Z,100796.53
2023-04-11T10:43:46.021Z,100791.88
2023-04-11T10:46:19.614Z,100782.59
2023-04-11T10:49:03.204Z,100773.91
2023-04-11T10:51:31.509Z,100761.59
2023-04-11T10:54:02.783Z,100754.00
2023-04-11T10:56:50.580Z,100764.50
2023-04-11T10:59:34.310Z,100767.53
2023-04-11T11:02:02.172Z,100761.66
2023-04-11T11:04:32.560Z,100760.34
2023-04-11T11:07:01.540Z,100758.41
2023-04-11T11:09:28.946Z,100757.66
2023-04-11T11:12:09.229Z,100762.56
2023-04-11T11:14:36.608Z,100769.69
2023-04-11T11:17:04.129Z,100746.31
2023-04-11T11:19:31.495Z,100744.72
2023-04-11T11:22:03.867Z,100746.34
2023-04-11T11:24:31.207Z,100742.00
2023-04-11T11:26:58.950Z,100739.97
2023-04-11T11:29:30.050Z,100741.59
2023-04-11T11:31:57.622Z,100737.25
2023-04-11T11:34:31.519Z,100738.38
2023-04-11T11:36:59.601Z,100729.75
2023-04-11T11:39:27.521Z,100729.31
2023-04-11T11:41:54.794Z,100721.75
2023-04-11T11:44:23.123Z,100720.22
2023-04-11T11:47:06.480Z,100722.22
2023-04-11T11:49:48.874Z,100723.28
2023-04-11T11:52:34.814Z,100725.59
2023-04-11T11:55:03.695Z,100722.50
2023-04-11T11:57:31.182Z,100715.44
2023-04-11T12:00:00.633Z,100712.72
2023-04-11T12:02:28.289Z,100715.41
2023-04-11T12:05:00.036Z,100706.25
2023-04-11T12:07:30.319Z,100713.34
2023-04-11T12:10:02.626Z,100708.28
2023-04-11T12:12:36.825Z,100713.63
2023-04-11T12:15:13.798Z,100708.81
2023-04-11T12:17:41.362Z,100699.38
2023-04-11T12:20:09.003Z,100690.78
2023-04-11T12:22:36.464Z,100696.41
2023-04-11T12:25:04.529Z,100692.81
2023-04-11T12:27:33.178Z,100690.88
2023-04-11T12:30:00.699Z,100694.09
2023-04-11T12:32:28.419Z,100684.63
2023-04-11T12:34:55.580Z,100682.22
2023-04-11T12:37:22.909Z,100674.72
2023-04-11T12:39:50.049Z,100679.09
2023-04-11T12:42:21.025Z,100671.97
2023-04-11T12:44:51.114Z,100661.25
2023-04-11T12:47:18.360Z,100664.06
2023-04-11T12:49:45.684Z,100654.94
2023-04-11T12:52:12.754Z,100648.56
2023-04-11T12:54:39.794Z,100643.41
2023-04-11T12:57:07.693Z,100646.59
2023-04-11T12:59:34.835Z,100647.00
2023-04-11T13:02:02.086Z,100636.75
2023-04-11T13:04:29.535Z,100636.75
2023-04-11T13:07:00.994Z,100616.59
2023-04-11T13:09:34.268Z,100611.88
2023-04-11T13:12:04.143Z,100599.19
2023-04-11T13:14:31.314Z,100585.34
2023-04-11T13:16:58.406Z,100587.28
2023-04-11T13:19:25.701Z,100578.59
2023-04-11T13:21:52.803Z,100567.53
2023-04-11T13:24:19.857Z,100569.03
2023-04-11T13:26:46.982Z,100566.66
2023-04-11T13:29:14.088Z,100577.06
2023-04-11T13:31:41.477Z,100569.97
2023-04-11T13:34:08.748Z,100576.28
2023-04-11T13:36:36.013Z,100573.91
2023-04-11T13:39:03.553Z,100557.72
2023-04-11T13:41:32.411Z,100564.03
2023-04-11T13:43:59.645Z,100564.78
2023-04-11T13:46:27.271Z,100554.94
2023-04-11T13:48:54.559Z,100552.19
2023-04-11T13:51:21.825Z,100545.84
2023-04-11T13:53:48.961Z,100535.59
2023-04-11T13:56:16.064Z,100539.91
2023-04-11T13:58:43.133Z,100531.59
2023-04-11T14:01:10.524Z,100539.91
2023-04-11T14:03:37.913Z,100544.28
2023-04-11T14:06:05.410Z,100541.13
2023-04-11T14:08:32.649Z,100539.94
2023-04-11T14:10:59.721Z,100530.44
2023-04-11T14:13:27.258Z,100529.22
2023-04-11T14:16:05.328Z,100528.88
2023-04-11T14:18:35.787Z,100526.91
2023-04-11T14:21:03.811Z,100531.22
2023-04-11T14:23:31.033Z,100520.19
2023-04-11T14:25:58.081Z,100532.44
2023-04-11T14:28:26.820Z,100528.81
2023-04-11T14:30:55.593Z,100530.34
2023-04-11T14:33:23.228Z,100511.38
2023-04-11T14:35:51.060Z,100509.81
2023-04-11T14:38:18.178Z,100496.44
2023-04-11T14:40:45.521Z,100494.44
2023-04-11T14:43:12.658Z,100493.19
2023-04-11T14:45:39.692Z,100492.78
2023-04-11T14:48:06.805Z,100477.44
2023-04-11T14:50:34.050Z,100484.13
2023-04-11T14:53:01.230Z,100481.78
2023-04-11T14:55:28.354Z,100491.31
2023-04-11T14:57:55.883Z,100491.72
2023-04-11T15:00:24.608Z,100485.41
2023-04-11T15:02:53.168Z,100486.19
2023-04-11T15:05:20.699Z,100481.47
2023-04-11T15:07:48.861Z,100475.94
2023-04-11T15:10:17.076Z,100479.09
2023-04-11T15:12:44.360Z,100483.84
2023-04-11T15:15:11.922Z,100479.06
2023-04-11T15:17:40.907Z,100465.25
2023-04-11T15:20:09.536Z,100461.69
2023-04-11T15:22:41.429Z,100467.63
2023-04-11T15:25:10.940Z,100476.28
2023-04-11T15:27:38.470Z,100473.09
2023-04-11T15:30:07.329Z,100467.56
2023-04-11T15:32:34.896Z,100465.97
2023-04-11T15:35:02.196Z,100463.22
2023-04-11T15:37:29.301Z,100467.56
2023-04-11T15:39:57.796Z,100464.00
2023-04-11T15:42:25.014Z,100454.13
2023-04-11T15:44:52.224Z,100455.31
2023-04-11T15:47:19.475Z,100460.47
2023-04-11T15:49:46.680Z,100444.69
2023-04-11T15:52:13.849Z,100453.75
2023-04-11T15:54:40.963Z,100443.50
2023-04-11T15:57:08.026Z,100443.50
2023-04-11T15:59:37.957Z,100439.97
2023-04-11T16:02:05.452Z,100445.88
2023-04-11T16:04:38.557Z,100447.44
2023-04-11T16:07:06.652Z,100453.00
2023-04-11T16:09:34.699Z,100449.44
2023-04-11T16:12:02.196Z,100450.22
2023-04-11T16:14:29.422Z,100449.81
2023-04-11T16:16:57.369Z,100450.97
2023-04-11T16:19:24.900Z,100457.69
2023-04-11T16:21:52.040Z,100456.53
2023-04-11T16:24:19.200Z,100453.00
2023-04-11T16:26:46.328Z,100446.66
2023-04-11T16:29:13.375Z,100440.34
2023-04-11T16:31:40.555Z,100442.72
2023-04-11T16:34:07.588Z,100446.66
2023-04-11T16:36:35.454Z,100436.81
2023-04-11T16:39:04.279Z,100434.00
2023-04-11T16:41:36.189Z,100435.94
2023-04-11T16:44:05.694Z,100435.56
2023-04-11T16:46:32.777Z,100424.47
2023-04-11T16:48:59.855Z,100418.97
2023-04-11T16:51:27.310Z,100428.84
2023-04-11T16:53:54.574Z,100426.06
2023-04-11T16:56:21.787Z,100429.53
2023-04-11T16:58:48.869Z,100425.16
2023-04-11T17:01:16.145Z,100420.84
2023-04-11T17:03:43.830Z,100411.75
2023-04-11T17:06:14.850Z,100419.22
2023-04-11T17:08:42.476Z,100415.69
2023-04-11T17:11:10.698Z,100416.03
2023-04-11T17:13:38.281Z,100426.66
2023-04-11T17:16:06.135Z,100416.38
2023-04-11T17:18:33.384Z,100413.25
2023-04-11T17:21:00.801Z,100411.97
2023-04-11T17:23:41.363Z,100408.81
2023-04-11T17:26:09.589Z,100408.13
2023-04-11T17:28:36.781Z,100403.34
2023-04-11T17:31:22.347Z,100413.16
2023-04-11T17:33:49.655Z,100408.31
2023-04-11T17:36:16.901Z,100409.50
2023-04-11T17:38:44.652Z,100415.75
2023-04-11T17:41:15.097Z,100417.63
2023-04-11T17:43:43.625Z,100416.81
2023-04-11T17:46:10.800Z,100415.16
2023-04-11T17:48:37.937Z,100429.28
2023-04-11T17:51:08.322Z,100428.03
2023-04-11T17:53:35.678Z,100422.91
2023-04-11T17:56:04.477Z,100414.13
2023-04-11T17:58:32.021Z,100412.09
2023-04-11T18:00:59.583Z,100424.59
2023-04-11T18:03:26.853Z,100429.97
2023-04-11T18:05:54.748Z,100428.69
2023-04-11T18:08:28.778Z,100432.47
2023-04-11T18:11:00.502Z,100433.19
2023-04-11T18:13:28.058Z,100425.63
2023-04-11T18:15:55.185Z,100426.69
2023-04-11T18:18:22.417Z,100428.94
2023-04-11T18:20:49.506Z,100442.69
2023-04-11T18:23:16.777Z,100444.97
2023-04-11T18:25:43.816Z,100451.56
2023-04-11T18:28:10.902Z,100449.50
2023-04-11T18:30:38.006Z,100449.13
2023-04-11T18:33:05.204Z,100447.97
2023-04-11T18:35:32.512Z,100460.34
2023-04-11T18:38:00.270Z,100464.91
2023-04-11T18:40:28.064Z,100458.88
2023-04-11T18:42:56.422Z,100462.53
2023-04-11T18:45:24.025Z,100467.66
2023-04-11T18:47:51.460Z,100473.13
2023-04-11T18:50:18.921Z,100482.94
2023-04-11T18:52:48.555Z,100479.34
2023-04-11T18:55:17.700Z,100484.84
2023-04-11T18:57:48.919Z,100488.75
2023-04-11T19:00:19.038Z,100488.56
2023-04-11T19:02:47.682Z,100494.50
2023-04-11T19:05:15.931Z,100485.03
2023-04-11T19:07:43.787Z,100487.84
2023-04-11T19:10:11.831Z,100493.56
2023-04-11T19:12:39.950Z,100496.09
2023-04-11T19:15:09.376Z,100509.44
2023-04-11T19:17:38.507Z,100516.44
2023-04-11T19:20:16.552Z,100508.72
2023-04-11T19:22:44.239Z,100516.69
2023-04-11T19:25:13.009Z,100516.22
2023-04-11T19:27:42.174Z,100506.34
2023-04-11T19:30:10.802Z,100511.72
2023-04-11T19:32:43.780Z,100513.59
2023-04-11T19:35:12.589Z,100526.25
2023-04-11T19:37:41.330Z,100532.00
2023-04-11T19:40:16.628Z,100531.72
2023-04-11T19:42:47.513Z,100538.34
2023-04-11T19:45:19.225Z,100534.34
2023-04-11T19:47:47.136Z,100536.44
2023-04-11T19:50:14.617Z,100527.22
2023-04-11T19:52:43.928Z,100528.78
2023-04-11T19:55:11.780Z,100527.00
2023-04-11T19:57:39.083Z,100523.91
2023-04-11T20:00:13.993Z,100527.41
2023-04-11T20:02:46.389Z,100526.16
2023-04-11T20:05:14.948Z,100522.75
2023-04-11T20:07:44.907Z,100527.38
2023-04-11T20:10:14.516Z,100533.97
2023-04-11T20:12:43.236Z,100530.56
2023-04-11T20:15:10.700Z,100538.28
2023-04-11T20:17:37.966Z,100543.91
2023-04-11T20:20:13.051Z,100534.59
2023-04-11T20:22:40.812Z,100533.88
2023-04-11T20:25:08.297Z,100537.72
2023-04-11T20:27:35.503Z,100537.16
2023-04-11T20:30:06.875Z,100538.72
2023-04-11T20:32:34.222Z,100542.63
2023-04-11T20:35:03.248Z,100546.72
2023-04-11T20:37:31.615Z,100542.09
2023-04-11T20:39:58.842Z,100554.41
2023-04-11T20:42:28.249Z,100564.34
2023-04-11T20:45:07.603Z,100568.88
2023-04-11T20:47:37.223Z,100568.16
2023-04-11T20:50:05.434Z,100566.78
2023-04-11T20:52:32.897Z,100570.41
2023-04-11T20:55:00.310Z,100572.06
2023-04-11T20:57:29.946Z,100568.63
2023-04-11T20:59:57.582Z,100567.09
2023-04-11T21:02:26.106Z,100576.56
2023-04-11T21:04:53.843Z,100577.97
2023-04-11T21:07:21.472Z,100568.72
2023-04-11T21:09:49.029Z,100570.19
2023-04-11T21:12:16.274Z,100578.16
2023-04-11T21:14:43.344Z,100581.53
2023-04-11T21:17:10.689Z,100584.28
2023-04-11T21:19:38.162Z,100586.25
2023-04-11T21:22:05.602Z,100583.09
2023-04-11T21:24:33.383Z,100585.13
2023-04-11T21:27:01.301Z,100582.03
2023-04-11T21:29:28.799Z,100586.31
2023-04-11T21:31:55.861Z,100583.19
2023-04-11T21:34:22.991Z,100585.94
2023-04-11T21:36:50.280Z,100591.38
2023-04-11T21:39:17.310Z,100592.63
2023-04-11T21:41:44.421Z,100588.56
2023-04-11T21:44:11.522Z,100582.59
2023-04-11T21:46:38.616Z,100589.78
2023-04-11T21:49:05.875Z,100586.72
2023-04-11T21:51:32.906Z,100584.09
2023-04-11T21:53:59.962Z,100584.19
2023-04-11T21:56:27.044Z,100580.00
2023-04-11T21:58:54.168Z,100585.28
2023-04-11T22:01:21.191Z,100581.34
2023-04-11T22:03:50.355Z,100581.91
2023-04-11T22:06:18.024Z,100585.78
2023-04-11T22:08:50.178Z,100585.38
2023-04-11T22:11:17.772Z,100575.66
2023-04-11T22:13:46.490Z,100580.16
2023-04-11T22:16:14.185Z,100573.16
2023-04-11T22:18:47.436Z,100574.84
2023-04-11T22:21:19.415Z,100568.22
2023-04-11T22:23:54.158Z,100558.56
2023-04-11T22:26:34.252Z,100561.84
2023-04-11T22:29:05.269Z,100561.59
2023-04-11T22:31:38.694Z,100558.59
2023-04-11T22:34:08.344Z,100548.19
2023-04-11T22:36:35.973Z,100551.28
2023-04-11T22:39:04.684Z,100552.19
2023-04-11T22:41:33.164Z,100562.41
2023-04-11T22:44:03.277Z,100554.31
2023-04-11T22:46:31.247Z,100558.09
2023-04-11T22:48:58.376Z,100562.22
2023-04-11T22:51:29.921Z,100562.09
2023-04-11T22:53:57.381Z,100560.41
2023-04-11T22:56:24.577Z,100564.78
2023-04-11T22:58:52.259Z,100562.34
2023-04-11T23:01:19.769Z,100562.91
2023-04-11T23:03:47.585Z,100559.50
2023-04-11T23:06:14.675Z,100559.34
2023-04-11T23:08:42.315Z,100573.81
2023-04-11T23:11:09.433Z,100559.06
2023-04-11T23:13:37.578Z,100559.59
2023-04-11T23:16:04.870Z,100558.09
2023-04-11T23:18:31.917Z,100567.03
2023-04-11T23:20:59.758Z,100556.94
2023-04-11T23:23:27.864Z,100560.50
2023-04-11T23:25:54.935Z,100566.78
2023-04-11T23:28:24.090Z,100566.78
2023-04-11T23:30:51.313Z,100565.75
2023-04-11T23:33:18.441Z,100567.53
2023-04-11T23:35:45.676Z,100562.75
2023-04-11T23:38:13.300Z,100560.75
2023-04-11T23:40:40.350Z,100564.34
2023-04-11T23:43:08.025Z,100553.97
2023-04-11T23:45:35.574Z,100554.97
2023-04-11T23:48:02.668Z,100552.59
2023-04-11T23:50:29.746Z,100542.44
2023-04-11T23:52:57.074Z,100546.72
2023-04-11T23:55:24.280Z,100548.91
2023-04-11T23:57:51.361Z,100530.53
